Time;durP1;ratioP1;P1;durP2;ratioP2;P2;SDS_P1;SDS_P2;PMS_P1;PMS_P2;Temp;Humidity;BMP_temperature;BMP_pressure;BME280_temperature;BME280_humidity;BME280_pressure;Samples;Min_cycle;Max_cycle;Signal;HPM_P1;HPM_P2
2021/01/20 08:05:09;;;;;;;5.03;1.48;;;;;;;0.99;75.21;95450.59;1052838;27;20348;-79
2021/01/20 08:05:41;;;;;;;7.22;1.10;;;;;;;1.00;74.91;95452.19;1051615;28;20032;-79
2021/01/20 08:06:12;;;;;;;7.60;1.33;;;;;;;1.02;75.45;95454.59;1043646;28;20026;-79
2021/01/20 08:06:42;;;;;;;10.50;1.42;;;;;;;1.02;75.50;95455.38;1043615;28;20024;-79
2021/01/20 08:07:22;;;;;;;6.07;1.40;;;;;;;1.03;75.66;95457.00;1043751;28;20029;-79
2021/01/20 08:07:52;;;;;;;6.43;1.60;;;;;;;1.06;75.25;95455.78;1044192;28;20029;-79
2021/01/20 08:08:23;;;;;;;5.22;1.30;;;;;;;1.08;74.96;95459.81;1039024;28;20108;-79
2021/01/20 08:08:55;;;;;;;4.53;1.45;;;;;;;1.09;74.23;95455.38;1039636;28;20026;-79
2021/01/20 08:09:44;;;;;;;5.88;1.38;;;;;;;1.14;74.47;95458.16;1039223;28;20040;-79
2021/01/20 08:10:18;;;;;;;8.57;1.55;;;;;;;1.16;74.82;95459.56;1041106;28;20029;-79
2021/01/20 08:10:49;;;;;;;3.28;0.90;;;;;;;1.17;74.82;95455.94;1043422;28;20027;-80
2021/01/20 08:11:19;;;;;;;2.90;1.38;;;;;;;1.21;74.40;95451.13;1043566;28;20036;-79
2021/01/20 08:11:50;;;;;;;14.50;1.35;;;;;;;1.24;73.95;95452.50;1043990;28;20151;-79
2021/01/20 08:12:27;;;;;;;7.22;1.60;;;;;;;1.23;74.04;95451.72;1043148;28;20079;-79
2021/01/20 08:12:58;;;;;;;15.70;3.08;;;;;;;1.24;74.85;95452.50;1039499;28;20426;-79
2021/01/20 08:13:29;;;;;;;11.50;1.20;;;;;;;1.23;74.72;95453.53;1041569;28;20053;-79
2021/01/20 08:14:00;;;;;;;13.05;2.00;;;;;;;1.26;74.43;95453.09;1040832;28;20396;-79
2021/01/20 08:14:31;;;;;;;17.25;1.75;;;;;;;1.28;74.07;95454.50;1041953;28;20026;-79
2021/01/20 08:15:03;;;;;;;12.45;1.75;;;;;;;1.29;73.94;95450.88;1040947;28;20112;-79
2021/01/20 08:15:40;;;;;;;11.38;1.67;;;;;;;1.32;73.81;95454.91;1044093;28;20021;-78
2021/01/20 08:16:10;;;;;;;8.10;1.80;;;;;;;1.34;73.97;95458.09;1048799;28;20020;-78
2021/01/20 08:16:40;;;;;;;7.82;1.60;;;;;;;1.38;73.90;95460.09;1046072;28;20431;-79
2021/01/20 08:17:12;;;;;;;10.15;1.83;;;;;;;1.33;73.91;95456.50;1049975;28;20021;-78
2021/01/20 08:18:57;;;;;;;3.83;1.30;;;;;;;1.40;74.10;95459.88;1034147;28;20484;-78
2021/01/20 08:19:31;;;;;;;4.82;1.15;;;;;;;1.41;74.10;95458.88;1037202;28;20462;-77
2021/01/20 08:20:02;;;;;;;5.18;1.05;;;;;;;1.38;73.89;95459.28;1027270;28;20392;-78
2021/01/20 08:20:33;;;;;;;3.15;1.20;;;;;;;1.37;73.70;95461.09;1019859;29;20028;-77
2021/01/20 08:21:06;;;;;;;4.53;1.30;;;;;;;1.44;73.69;95466.31;1023571;29;20024;-83
2021/01/20 08:21:36;;;;;;;1.77;1.15;;;;;;;1.49;73.61;95465.69;1031482;28;20158;-84
2021/01/20 08:22:14;;;;;;;4.05;1.50;;;;;;;1.48;73.63;95454.44;1032597;28;20538;-84
2021/01/20 08:22:45;;;;;;;2.45;1.13;;;;;;;1.49;73.67;95455.22;1036916;28;20478;-84
2021/01/20 08:23:36;;;;;;;3.72;1.27;;;;;;;1.51;73.16;95458.44;1031589;28;20022;-84
2021/01/20 08:24:07;;;;;;;3.30;1.40;;;;;;;1.50;73.30;95462.84;1027507;28;20023;-84
2021/01/20 08:24:48;;;;;;;2.60;1.20;;;;;;;1.53;73.16;95462.44;1030589;28;20046;-84
2021/01/20 08:25:22;;;;;;;2.42;1.58;;;;;;;1.54;73.36;95453.63;1038704;28;20042;-84
2021/01/20 08:26:14;;;;;;;3.60;1.30;;;;;;;1.57;73.11;95461.03;1033731;28;20046;-84
2021/01/20 08:26:45;;;;;;;2.58;1.35;;;;;;;1.60;73.33;95460.59;1032425;28;20488;-84
2021/01/20 08:27:24;;;;;;;2.35;1.35;;;;;;;1.59;73.06;95455.59;1031773;28;20019;-84
2021/01/20 08:27:54;;;;;;;3.38;1.17;;;;;;;1.59;73.39;95451.16;1035952;28;20128;-85
2021/01/20 08:28:25;;;;;;;1.83;1.20;;;;;;;1.60;73.20;95458.00;1035969;28;20746;-85
2021/01/20 08:29:05;;;;;;;2.20;1.40;;;;;;;1.63;73.31;95449.72;1043703;28;20013;-84
2021/01/20 08:29:56;;;;;;;3.55;1.95;;;;;;;1.66;73.35;95464.22;1048392;28;20096;-84
2021/01/20 08:30:36;;;;;;;2.47;1.30;;;;;;;1.64;73.66;95461.78;1043926;28;20049;-83
2021/01/20 08:31:19;;;;;;;4.78;1.42;;;;;;;1.67;73.23;95455.34;1044144;28;20013;-84
2021/01/20 08:32:05;;;;;;;2.55;1.17;;;;;;;1.69;73.00;95454.13;1035799;28;20415;-85
2021/01/20 08:32:36;;;;;;;1.95;1.00;;;;;;;1.61;73.17;95454.38;1039277;28;20021;-78
2021/01/20 08:33:06;;;;;;;2.55;1.35;;;;;;;1.66;73.49;95459.78;1035292;28;20396;-79
2021/01/20 08:33:37;;;;;;;2.40;1.63;;;;;;;1.66;73.39;95457.16;1038249;28;20018;-77
2021/01/20 08:34:19;;;;;;;3.30;1.35;;;;;;;1.69;73.55;95458.56;1035346;28;20479;-76
2021/01/20 08:34:51;;;;;;;3.95;1.48;;;;;;;1.70;73.52;95460.97;1036959;28;20029;-77
2021/01/20 08:35:29;;;;;;;3.58;1.52;;;;;;;1.67;73.64;95458.78;1039467;28;20036;-75
2021/01/20 08:35:59;;;;;;;4.25;1.92;;;;;;;1.68;73.42;95455.16;1036655;28;20449;-76
2021/01/20 08:36:30;;;;;;;4.80;1.65;;;;;;;1.71;73.23;95457.34;1038305;28;20019;-77
2021/01/20 08:37:02;;;;;;;4.20;1.25;;;;;;;1.72;73.12;95458.13;1043739;28;20024;-77
2021/01/20 08:37:34;;;;;;;5.82;1.63;;;;;;;1.72;73.25;95463.34;1043995;28;20100;-78
2021/01/20 08:38:05;;;;;;;7.20;1.70;;;;;;;1.70;72.83;95460.97;1039549;28;20021;-79
2021/01/20 08:38:35;;;;;;;11.05;1.90;;;;;;;1.66;73.59;95465.00;1035304;28;20018;-78
2021/01/20 08:39:07;;;;;;;4.68;1.63;;;;;;;1.58;74.76;95454.78;1035332;28;20029;-76
2021/01/20 08:39:58;;;;;;;5.00;1.63;;;;;;;1.64;74.10;95453.94;1035569;28;20380;-77
2021/01/20 08:40:29;;;;;;;7.25;2.08;;;;;;;1.69;73.17;95451.53;1042163;28;20425;-79
2021/01/20 08:41:12;;;;;;;6.38;2.38;;;;;;;1.68;73.35;95457.75;1043680;28;20048;-79
2021/01/20 08:42:14;;;;;;;1.88;1.40;;;;;;;1.73;72.91;95449.28;1043921;28;20024;-79
2021/01/20 08:42:45;;;;;;;3.70;1.90;;;;;;;1.70;72.63;95449.72;1039521;28;20053;-81
2021/01/20 08:43:22;;;;;;;4.28;2.90;;;;;;;1.59;72.86;95451.16;1039452;28;20026;-80
2021/01/20 08:44:13;;;;;;;3.72;2.58;;;;;;;1.68;72.46;95449.13;1039443;28;20025;-78
2021/01/20 08:45:09;;;;;;;2.70;1.77;;;;;;;1.70;72.61;95447.91;1039296;28;20060;-78
2021/01/20 08:45:39;;;;;;;3.15;1.73;;;;;;;1.65;72.91;95450.31;1041559;28;20108;-77
2021/01/20 08:46:23;;;;;;;4.47;1.50;;;;;;;1.68;73.31;95455.16;1040864;28;20048;-77
2021/01/20 08:46:54;;;;;;;2.78;1.75;;;;;;;1.65;73.47;95450.31;1039258;28;20027;-79
2021/01/20 08:47:24;;;;;;;2.65;1.95;;;;;;;1.70;73.57;95447.91;1039176;28;20027;-78
2021/01/20 08:48:05;;;;;;;4.55;1.77;;;;;;;1.72;73.09;95451.09;1039002;28;20483;-77
2021/01/20 08:48:35;;;;;;;4.00;1.70;;;;;;;1.74;73.03;95448.28;1037185;28;20022;-78
2021/01/20 08:49:06;;;;;;;4.30;1.90;;;;;;;1.70;72.95;95441.88;1038440;28;20037;-78
2021/01/20 08:49:36;;;;;;;3.25;1.80;;;;;;;1.68;73.07;95449.13;1039189;28;20029;-79
2021/01/20 08:50:07;;;;;;;3.60;1.98;;;;;;;1.69;73.53;95450.72;1038655;28;20037;-79
2021/01/20 08:50:43;;;;;;;4.80;2.22;;;;;;;1.67;73.46;95450.13;1042814;28;20101;-79
2021/01/20 08:51:18;;;;;;;3.22;2.22;;;;;;;1.66;75.25;95445.91;1043634;28;20025;-80
2021/01/20 08:52:47;;;;;;;5.07;2.17;;;;;;;1.70;73.89;95442.66;1060657;27;20391;-78
2021/01/20 08:53:24;;;;;;;4.68;3.20;;;;;;;1.69;73.09;95446.28;1055188;28;20040;-78
2021/01/20 08:53:54;;;;;;;6.55;3.78;;;;;;;1.69;72.67;95435.84;1055788;28;20618;-77
2021/01/20 08:54:27;;;;;;;5.43;3.75;;;;;;;1.69;74.38;95446.28;1055981;28;20035;-78
2021/01/20 08:54:59;;;;;;;6.93;3.90;;;;;;;1.67;74.81;95434.47;1054974;28;20009;-80
2021/01/20 08:55:39;;;;;;;6.38;4.10;;;;;;;1.68;73.47;95441.28;1052297;28;20029;-80
2021/01/20 08:56:09;;;;;;;;;;;;;;;1.72;73.09;95445.88;1052505;28;20028;-79
2021/01/20 08:56:41;;;;;;;4.13;3.40;;;;;;;1.68;72.83;95447.31;1049457;28;19913;-81
2021/01/20 08:57:16;;;;;;;5.45;2.83;;;;;;;1.72;72.60;95445.88;1055339;28;20024;-80
2021/01/20 08:57:46;;;;;;;6.25;2.83;;;;;;;1.65;74.71;95446.91;1060638;28;20039;-79
2021/01/20 08:58:20;;;;;;;4.28;3.22;;;;;;;1.69;73.53;95446.28;1057692;28;20111;-77
2021/01/20 08:58:54;;;;;;;3.55;2.38;;;;;;;1.62;74.11;95440.28;1061919;28;20050;-80
